sensor_id;sensor_type;location;lat;lon;timestamp;pressure;altitude;pressure_sealevel;temperature;humidity
65359;BME280;52491;45.900;6.346;2023-09-18T00:01:37;93451.25;;;28.10;40.27
65359;BME280;52491;45.900;6.346;2023-09-18T00:04:05;93447.78;;;28.09;40.15
65359;BME280;52491;45.900;6.346;2023-09-18T00:06:32;93455.84;;;28.23;39.82
65359;BME280;52491;45.900;6.346;2023-09-18T00:08:58;93455.13;;;28.31;39.87
65359;BME280;52491;45.900;6.346;2023-09-18T00:11:23;93453.28;;;28.32;39.45
65359;BME280;52491;45.900;6.346;2023-09-18T00:13:49;93452.75;;;28.30;39.67
65359;BME280;52491;45.900;6.346;2023-09-18T00:16:14;93459.41;;;28.32;39.52
65359;BME280;52491;45.900;6.346;2023-09-18T00:18:40;93448.69;;;28.32;39.33
65359;BME280;52491;45.900;6.346;2023-09-18T00:21:07;93454.84;;;28.33;39.47
65359;BME280;52491;45.900;6.346;2023-09-18T00:23:32;93448.69;;;28.32;39.39
65359;BME280;52491;45.900;6.346;2023-09-18T00:26:00;93455.13;;;28.31;39.67
65359;BME280;52491;45.900;6.346;2023-09-18T00:28:26;93464.47;;;28.34;39.45
65359;BME280;52491;45.900;6.346;2023-09-18T00:30:51;93470.16;;;28.32;39.30
65359;BME280;52491;45.900;6.346;2023-09-18T00:33:17;93462.91;;;28.33;39.29
65359;BME280;52491;45.900;6.346;2023-09-18T00:35:51;93482.16;;;28.35;39.52
65359;BME280;52491;45.900;6.346;2023-09-18T00:38:17;93492.38;;;28.33;39.56
65359;BME280;52491;45.900;6.346;2023-09-18T00:40:44;93508.47;;;28.33;39.28
65359;BME280;52491;45.900;6.346;2023-09-18T00:43:10;93496.63;;;28.34;39.58
65359;BME280;52491;45.900;6.346;2023-09-18T00:45:47;93506.28;;;28.35;39.29
65359;BME280;52491;45.900;6.346;2023-09-18T00:48:14;93510.88;;;28.34;39.24
65359;BME280;52491;45.900;6.346;2023-09-18T00:50:41;93509.25;;;28.33;38.95
65359;BME280;52491;45.900;6.346;2023-09-18T00:53:11;93546.50;;;28.35;39.05
65359;BME280;52491;45.900;6.346;2023-09-18T00:55:39;93519.97;;;28.33;38.95
65359;BME280;52491;45.900;6.346;2023-09-18T00:58:06;93503.91;;;28.33;39.11
65359;BME280;52491;45.900;6.346;2023-09-18T01:00:32;93530.72;;;28.33;39.18
65359;BME280;52491;45.900;6.346;2023-09-18T01:02:58;93527.22;;;28.33;39.44
65359;BME280;52491;45.900;6.346;2023-09-18T01:05:24;93528.03;;;28.33;39.49
65359;BME280;52491;45.900;6.346;2023-09-18T01:07:50;93513.84;;;28.33;39.52
65359;BME280;52491;45.900;6.346;2023-09-18T01:10:16;93525.34;;;28.33;39.52
65359;BME280;52491;45.900;6.346;2023-09-18T01:17:45;93522.66;;;28.33;39.52
65359;BME280;52491;45.900;6.346;2023-09-18T01:20:12;93530.72;;;28.33;39.66
65359;BME280;52491;45.900;6.346;2023-09-18T01:22:37;93515.41;;;28.34;39.55
65359;BME280;52491;45.900;6.346;2023-09-18T01:25:03;93528.81;;;28.34;39.13
65359;BME280;52491;45.900;6.346;2023-09-18T01:27:31;93526.13;;;28.34;39.27
65359;BME280;52491;45.900;6.346;2023-09-18T01:29:57;93522.66;;;28.33;39.34
65359;BME280;52491;45.900;6.346;2023-09-18T01:32:26;93510.88;;;28.34;39.21
65359;BME280;52491;45.900;6.346;2023-09-18T01:34:54;93496.34;;;28.36;39.43
65359;BME280;52491;45.900;6.346;2023-09-18T01:37:24;93483.75;;;28.36;39.27
65359;BME280;52491;45.900;6.346;2023-09-18T01:39:51;93468.25;;;28.33;39.36
65359;BME280;52491;45.900;6.346;2023-09-18T01:42:19;93475.19;;;28.34;39.70
65359;BME280;52491;45.900;6.346;2023-09-18T01:44:46;93477.59;;;28.36;39.55
65359;BME280;52491;45.900;6.346;2023-09-18T01:47:19;93484.25;;;28.38;39.17
65359;BME280;52491;45.900;6.346;2023-09-18T01:49:46;93491.00;;;28.36;39.43
65359;BME280;52491;45.900;6.346;2023-09-18T01:52:12;93486.75;;;28.34;39.32
65359;BME280;52491;45.900;6.346;2023-09-18T01:54:37;93484.91;;;28.16;39.90
65359;BME280;52491;45.900;6.346;2023-09-18T01:57:04;93486.63;;;28.12;39.97
65359;BME280;52491;45.900;6.346;2023-09-18T01:59:30;93485.78;;;28.11;39.98
65359;BME280;52491;45.900;6.346;2023-09-18T02:01:56;93479.13;;;28.09;40.11
65359;BME280;52491;45.900;6.346;2023-09-18T02:04:23;93488.00;;;28.09;40.18
65359;BME280;52491;45.900;6.346;2023-09-18T02:06:51;93478.06;;;28.10;40.37
65359;BME280;52491;45.900;6.346;2023-09-18T02:09:17;93476.09;;;28.29;39.80
65359;BME280;52491;45.900;6.346;2023-09-18T02:11:45;93483.63;;;28.14;40.20
65359;BME280;52491;45.900;6.346;2023-09-18T02:14:12;93476.97;;;28.11;40.36
65359;BME280;52491;45.900;6.346;2023-09-18T02:16:39;93483.44;;;28.10;40.32
65359;BME280;52491;45.900;6.346;2023-09-18T02:19:11;93484.22;;;28.10;40.21
65359;BME280;52491;45.900;6.346;2023-09-18T02:21:37;93489.56;;;28.10;40.35
65359;BME280;52491;45.900;6.346;2023-09-18T02:24:03;93477.28;;;28.09;40.31
65359;BME280;52491;45.900;6.346;2023-09-18T02:26:29;93467.63;;;28.08;40.58
65359;BME280;52491;45.900;6.346;2023-09-18T02:28:57;93472.72;;;28.10;40.42
65359;BME280;52491;45.900;6.346;2023-09-18T02:31:23;93473.78;;;28.09;40.51
65359;BME280;52491;45.900;6.346;2023-09-18T02:33:49;93471.91;;;28.09;40.49
65359;BME280;52491;45.900;6.346;2023-09-18T02:36:15;93464.94;;;28.08;40.60
65359;BME280;52491;45.900;6.346;2023-09-18T02:38:41;93474.28;;;28.11;40.43
65359;BME280;52491;45.900;6.346;2023-09-18T02:41:06;93476.97;;;28.11;40.37
65359;BME280;52491;45.900;6.346;2023-09-18T02:43:32;93473.22;;;28.12;40.45
65359;BME280;52491;45.900;6.346;2023-09-18T02:45:57;93465.47;;;28.10;40.53
65359;BME280;52491;45.900;6.346;2023-09-18T02:48:23;93465.75;;;28.09;40.47
65359;BME280;52491;45.900;6.346;2023-09-18T02:50:49;93463.88;;;28.09;40.27
65359;BME280;52491;45.900;6.346;2023-09-18T02:53:22;93464.66;;;28.10;40.53
65359;BME280;52491;45.900;6.346;2023-09-18T02:55:52;93457.69;;;28.09;40.52
65359;BME280;52491;45.900;6.346;2023-09-18T02:58:19;93450.47;;;28.09;40.21
65359;BME280;52491;45.900;6.346;2023-09-18T03:00:49;93461.97;;;28.10;40.36
65359;BME280;52491;45.900;6.346;2023-09-18T03:03:15;93457.69;;;28.09;40.51
65359;BME280;52491;45.900;6.346;2023-09-18T03:05:43;93456.13;;;28.08;40.24
65359;BME280;52491;45.900;6.346;2023-09-18T03:08:09;93464.16;;;28.08;40.30
65359;BME280;52491;45.900;6.346;2023-09-18T03:10:37;93472.19;;;28.08;40.24
65359;BME280;52491;45.900;6.346;2023-09-18T03:13:05;93473.78;;;28.09;40.41
65359;BME280;52491;45.900;6.346;2023-09-18T03:15:31;93467.94;;;28.07;40.42
65359;BME280;52491;45.900;6.346;2023-09-18T03:17:58;93465.25;;;28.07;40.30
65359;BME280;52491;45.900;6.346;2023-09-18T03:20:28;93460.69;;;28.07;40.15
65359;BME280;52491;45.900;6.346;2023-09-18T03:22:56;93458.81;;;28.08;40.19
65359;BME280;52491;45.900;6.346;2023-09-18T03:25:22;93449.66;;;28.09;40.25
65359;BME280;52491;45.900;6.346;2023-09-18T03:27:47;93448.88;;;28.08;40.36
65359;BME280;52491;45.900;6.346;2023-09-18T03:30:13;93444.28;;;28.09;40.47
65359;BME280;52491;45.900;6.346;2023-09-18T03:32:41;93444.63;;;28.07;40.28
65359;BME280;52491;45.900;6.346;2023-09-18T03:35:08;93447.28;;;28.07;40.31
65359;BME280;52491;45.900;6.346;2023-09-18T03:37:41;93444.63;;;28.07;40.36
65359;BME280;52491;45.900;6.346;2023-09-18T03:40:08;93449.97;;;28.07;40.04
65359;BME280;52491;45.900;6.346;2023-09-18T03:42:34;93441.13;;;28.07;40.28
65359;BME280;52491;45.900;6.346;2023-09-18T03:44:59;93451.88;;;28.07;40.21
65359;BME280;52491;45.900;6.346;2023-09-18T03:47:25;93453.44;;;28.08;40.31
65359;BME280;52491;45.900;6.346;2023-09-18T03:49:51;93450.75;;;28.08;40.32
65359;BME280;52491;45.900;6.346;2023-09-18T03:52:16;93450.75;;;28.08;40.22
65359;BME280;52491;45.900;6.346;2023-09-18T03:54:42;93449.97;;;28.07;40.16
65359;BME280;52491;45.900;6.346;2023-09-18T03:57:07;93440.34;;;28.06;40.16
65359;BME280;52491;45.900;6.346;2023-09-18T03:59:33;93443.03;;;28.06;40.21
65359;BME280;52491;45.900;6.346;2023-09-18T04:01:58;93445.72;;;28.06;40.19
65359;BME280;52491;45.900;6.346;2023-09-18T04:04:24;93434.19;;;28.06;39.92
65359;BME280;52491;45.900;6.346;2023-09-18T04:06:50;93443.03;;;28.06;40.27
65359;BME280;52491;45.900;6.346;2023-09-18T04:09:15;93451.88;;;28.07;40.09
65359;BME280;52491;45.900;6.346;2023-09-18T04:11:41;93454.81;;;28.05;40.05
65359;BME280;52491;45.900;6.346;2023-09-18T04:14:06;93443.03;;;28.06;40.09
65359;BME280;52491;45.900;6.346;2023-09-18T04:16:32;93437.16;;;28.04;40.12
65359;BME280;52491;45.900;6.346;2023-09-18T04:19:01;93439.84;;;28.04;40.12
65359;BME280;52491;45.900;6.346;2023-09-18T04:21:27;93432.59;;;28.05;40.11
65359;BME280;52491;45.900;6.346;2023-09-18T04:23:54;93434.19;;;28.06;39.79
65359;BME280;52491;45.900;6.346;2023-09-18T04:26:25;93420.78;;;28.06;40.00
65359;BME280;52491;45.900;6.346;2023-09-18T04:28:59;93406.59;;;28.05;40.02
65359;BME280;52491;45.900;6.346;2023-09-18T04:31:28;93411.16;;;28.05;40.12
65359;BME280;52491;45.900;6.346;2023-09-18T04:33:55;93411.94;;;28.05;39.99
65359;BME280;52491;45.900;6.346;2023-09-18T04:36:24;93408.19;;;28.06;40.04
65359;BME280;52491;45.900;6.346;2023-09-18T04:38:50;93401.22;;;28.05;40.06
65359;BME280;52491;45.900;6.346;2023-09-18T04:41:16;93401.22;;;28.05;39.96
65359;BME280;52491;45.900;6.346;2023-09-18T04:43:42;93396.28;;;28.26;39.70
65359;BME280;52491;45.900;6.346;2023-09-18T04:46:10;93389.53;;;28.29;39.37
65359;BME280;52491;45.900;6.346;2023-09-18T04:48:36;93395.69;;;28.29;39.47
65359;BME280;52491;45.900;6.346;2023-09-18T04:51:03;93393.78;;;28.30;39.58
65359;BME280;52491;45.900;6.346;2023-09-18T04:53:30;93393.47;;;28.31;39.39
65359;BME280;52491;45.900;6.346;2023-09-18T04:55:55;93406.88;;;28.31;39.69
65359;BME280;52491;45.900;6.346;2023-09-18T04:58:21;93419.22;;;28.32;39.61
65359;BME280;52491;45.900;6.346;2023-09-18T05:00:54;93432.63;;;28.32;39.54
65359;BME280;52491;45.900;6.346;2023-09-18T05:03:20;93453.28;;;28.32;39.80
65359;BME280;52491;45.900;6.346;2023-09-18T05:05:49;93465.56;;;28.33;39.36
65359;BME280;52491;45.900;6.346;2023-09-18T05:08:15;93494.28;;;28.32;39.63
65359;BME280;52491;45.900;6.346;2023-09-18T05:10:40;93493.16;;;28.33;39.50
65359;BME280;52491;45.900;6.346;2023-09-18T05:13:06;93460.81;;;28.30;39.63
65359;BME280;52491;45.900;6.346;2023-09-18T05:15:32;93457.34;;;28.29;39.74
65359;BME280;52491;45.900;6.346;2023-09-18T05:17:59;93474.22;;;28.30;39.58
65359;BME280;52491;45.900;6.346;2023-09-18T05:20:26;93473.91;;;28.31;39.69
65359;BME280;52491;45.900;6.346;2023-09-18T05:22:54;93466.16;;;28.30;39.50
65359;BME280;52491;45.900;6.346;2023-09-18T05:25:23;93472.63;;;28.29;39.52
65359;BME280;52491;45.900;6.346;2023-09-18T05:27:50;93488.72;;;28.29;39.64
65359;BME280;52491;45.900;6.346;2023-09-18T05:30:24;93481.47;;;28.29;39.63
65359;BME280;52491;45.900;6.346;2023-09-18T05:32:50;93467.28;;;28.29;39.51
65359;BME280;52491;45.900;6.346;2023-09-18T05:35:16;93476.38;;;28.28;39.52
65359;BME280;52491;45.900;6.346;2023-09-18T05:37:42;93489.78;;;28.28;39.29
65359;BME280;52491;45.900;6.346;2023-09-18T05:40:10;93489.50;;;28.29;39.30
65359;BME280;52491;45.900;6.346;2023-09-18T05:42:37;93501.81;;;28.30;39.30
65359;BME280;52491;45.900;6.346;2023-09-18T05:45:04;93509.06;;;28.30;39.51
65359;BME280;52491;45.900;6.346;2023-09-18T05:47:33;93509.56;;;28.32;39.53
65359;BME280;52491;45.900;6.346;2023-09-18T05:49:59;93510.44;;;28.27;39.27
65359;BME280;52491;45.900;6.346;2023-09-18T05:52:25;93498.63;;;28.28;39.40
65359;BME280;52491;45.900;6.346;2023-09-18T05:54:51;93493.25;;;28.28;39.35
65359;BME280;52491;45.900;6.346;2023-09-18T05:57:17;93479.84;;;28.28;39.42
65359;BME280;52491;45.900;6.346;2023-09-18T05:59:43;93468.06;;;28.29;39.40
65359;BME280;52491;45.900;6.346;2023-09-18T06:02:11;93461.09;;;28.28;39.52
65359;BME280;52491;45.900;6.346;2023-09-18T06:04:37;93487.44;;;28.26;39.35
65359;BME280;52491;45.900;6.346;2023-09-18T06:07:03;93510.16;;;28.29;39.43
65359;BME280;52491;45.900;6.346;2023-09-18T06:09:29;93492.97;;;28.30;39.46
65359;BME280;52491;45.900;6.346;2023-09-18T06:11:54;93496.75;;;28.29;39.38
65359;BME280;52491;45.900;6.346;2023-09-18T06:14:20;93492.97;;;28.30;39.30
65359;BME280;52491;45.900;6.346;2023-09-18T06:16:45;93510.97;;;28.29;39.31
65359;BME280;52491;45.900;6.346;2023-09-18T06:19:11;93535.88;;;28.30;39.32
65359;BME280;52491;45.900;6.346;2023-09-18T06:21:36;93553.53;;;28.31;39.50
65359;BME280;52491;45.900;6.346;2023-09-18T06:24:02;93543.59;;;28.31;39.31
65359;BME280;52491;45.900;6.346;2023-09-18T06:26:28;93534.78;;;28.31;39.52
65359;BME280;52491;45.900;6.346;2023-09-18T06:28:53;93521.38;;;28.31;39.34
65359;BME280;52491;45.900;6.346;2023-09-18T06:31:20;93535.09;;;28.29;39.56
65359;BME280;52491;45.900;6.346;2023-09-18T06:33:46;93550.84;;;28.31;39.41
65359;BME280;52491;45.900;6.346;2023-09-18T06:36:13;93551.66;;;28.31;39.29
65359;BME280;52491;45.900;6.346;2023-09-18T06:38:38;93543.59;;;28.31;39.47
65359;BME280;52491;45.900;6.346;2023-09-18T06:41:04;93534.78;;;28.31;39.21
65359;BME280;52491;45.900;6.346;2023-09-18T06:43:32;93536.38;;;28.32;39.52
65359;BME280;52491;45.900;6.346;2023-09-18T06:46:01;93548.97;;;28.31;39.64
65359;BME280;52491;45.900;6.346;2023-09-18T06:48:30;93547.91;;;28.32;39.41
65359;BME280;52491;45.900;6.346;2023-09-18T06:50:59;93553.53;;;28.31;39.61
65359;BME280;52491;45.900;6.346;2023-09-18T06:53:27;93564.56;;;28.29;39.58
65359;BME280;52491;45.900;6.346;2023-09-18T06:55:54;93567.25;;;28.29;39.38
65359;BME280;52491;45.900;6.346;2023-09-18T06:58:20;93575.28;;;28.29;39.57
65359;BME280;52491;45.900;6.346;2023-09-18T07:00:46;93571.81;;;28.29;39.12
65359;BME280;52491;45.900;6.346;2023-09-18T07:03:11;93597.81;;;28.28;39.51
65359;BME280;52491;45.900;6.346;2023-09-18T07:05:37;93606.16;;;28.27;39.49
65359;BME280;52491;45.900;6.346;2023-09-18T07:08:03;93582.03;;;28.27;39.43
65359;BME280;52491;45.900;6.346;2023-09-18T07:10:31;93555.22;;;28.27;39.69
65359;BME280;52491;45.900;6.346;2023-09-18T07:12:58;93561.38;;;28.27;39.66
65359;BME280;52491;45.900;6.346;2023-09-18T07:15:23;93578.25;;;28.28;39.38
65359;BME280;52491;45.900;6.346;2023-09-18T07:17:49;93593.84;;;28.26;39.49
65359;BME280;52491;45.900;6.346;2023-09-18T07:20:15;93609.63;;;28.27;39.53
65359;BME280;52491;45.900;6.346;2023-09-18T07:22:45;93619.56;;;28.27;39.27
65359;BME280;52491;45.900;6.346;2023-09-18T07:25:11;93629.78;;;28.25;39.29
65359;BME280;52491;45.900;6.346;2023-09-18T07:27:36;93634.88;;;28.26;39.28
65359;BME280;52491;45.900;6.346;2023-09-18T07:30:04;93615.28;;;28.26;39.85
65359;BME280;52491;45.900;6.346;2023-09-18T07:32:30;93614.50;;;28.25;39.67
65359;BME280;52491;45.900;6.346;2023-09-18T07:34:58;93630.56;;;28.25;39.59
65359;BME280;52491;45.900;6.346;2023-09-18T07:37:28;93629.00;;;28.24;39.63
65359;BME280;52491;45.900;6.346;2023-09-18T07:39:53;93626.59;;;28.23;39.66
65359;BME280;52491;45.900;6.346;2023-09-18T07:42:19;93664.94;;;28.23;39.49
65359;BME280;52491;45.900;6.346;2023-09-18T07:44:44;93661.41;;;27.90;40.21
65359;BME280;52491;45.900;6.346;2023-09-18T07:47:13;93640.63;;;27.82;40.32
65359;BME280;52491;45.900;6.346;2023-09-18T07:49:41;93628.59;;;27.79;40.55
65359;BME280;52491;45.900;6.346;2023-09-18T07:52:07;93633.16;;;27.79;40.49
65359;BME280;52491;45.900;6.346;2023-09-18T07:54:32;93646.59;;;28.11;39.87
65359;BME280;52491;45.900;6.346;2023-09-18T07:56:58;93656.97;;;28.18;39.36
65359;BME280;52491;45.900;6.346;2023-09-18T07:59:25;93672.47;;;28.21;39.41
65359;BME280;52491;45.900;6.346;2023-09-18T08:01:51;93679.41;;;28.22;39.54
65359;BME280;52491;45.900;6.346;2023-09-18T08:04:17;93685.28;;;28.24;39.44
65359;BME280;52491;45.900;6.346;2023-09-18T08:06:43;93664.94;;;28.23;39.66
65359;BME280;52491;45.900;6.346;2023-09-18T08:09:08;93669.00;;;28.21;39.77
65359;BME280;52491;45.900;6.346;2023-09-18T08:11:42;93686.16;;;28.20;39.39
65359;BME280;52491;45.900;6.346;2023-09-18T08:14:09;93683.47;;;28.20;39.24
65359;BME280;52491;45.900;6.346;2023-09-18T08:16:37;93680.78;;;28.20;39.45
65359;BME280;52491;45.900;6.346;2023-09-18T08:19:03;93681.09;;;28.18;39.47
65359;BME280;52491;45.900;6.346;2023-09-18T08:21:29;93685.34;;;28.19;39.58
65359;BME280;52491;45.900;6.346;2023-09-18T08:23:55;93694.72;;;28.22;39.38
65359;BME280;52491;45.900;6.346;2023-09-18T08:26:21;93709.69;;;28.23;39.37
65359;BME280;52491;45.900;6.346;2023-09-18T08:28:47;93707.00;;;28.23;39.50
65359;BME280;52491;45.900;6.346;2023-09-18T08:31:13;93715.88;;;28.23;39.49
65359;BME280;52491;45.900;6.346;2023-09-18T08:33:41;93723.91;;;28.23;39.44
65359;BME280;52491;45.900;6.346;2023-09-18T08:36:07;93736.22;;;28.24;39.32
65359;BME280;52491;45.900;6.346;2023-09-18T08:38:33;93746.94;;;28.24;39.48
65359;BME280;52491;45.900;6.346;2023-09-18T08:40:58;93741.59;;;28.24;39.54
65359;BME280;52491;45.900;6.346;2023-09-18T08:43:24;93727.88;;;28.26;39.13
65359;BME280;52491;45.900;6.346;2023-09-18T08:45:54;93720.94;;;28.25;39.21
65359;BME280;52491;45.900;6.346;2023-09-18T08:48:21;93706.72;;;28.24;39.18
65359;BME280;52491;45.900;6.346;2023-09-18T08:50:47;93693.34;;;28.24;39.44
65359;BME280;52491;45.900;6.346;2023-09-18T08:53:14;93688.25;;;28.23;39.20
65359;BME280;52491;45.900;6.346;2023-09-18T08:55:40;93697.38;;;28.22;39.23
65359;BME280;52491;45.900;6.346;2023-09-18T08:58:07;93700.06;;;28.22;39.24
65359;BME280;52491;45.900;6.346;2023-09-18T09:00:38;93685.09;;;28.21;39.14
65359;BME280;52491;45.900;6.346;2023-09-18T09:03:04;93683.47;;;28.20;39.50
65359;BME280;52491;45.900;6.346;2023-09-18T09:05:30;93682.41;;;28.21;39.55
65359;BME280;52491;45.900;6.346;2023-09-18T09:07:56;93710.00;;;28.21;39.38
65359;BME280;52491;45.900;6.346;2023-09-18T09:10:22;93716.44;;;28.20;39.29
65359;BME280;52491;45.900;6.346;2023-09-18T09:15:23;93661.75;;;28.21;39.25
65359;BME280;52491;45.900;6.346;2023-09-18T09:17:50;93683.19;;;28.21;39.56
65359;BME280;52491;45.900;6.346;2023-09-18T09:20:16;93690.13;;;28.22;39.06
65359;BME280;52491;45.900;6.346;2023-09-18T09:22:43;93704.34;;;28.23;39.49
65359;BME280;52491;45.900;6.346;2023-09-18T09:25:22;93732.75;;;28.24;39.34
65359;BME280;52491;45.900;6.346;2023-09-18T09:27:48;93746.94;;;28.24;39.27
65359;BME280;52491;45.900;6.346;2023-09-18T09:30:21;93704.84;;;28.25;39.14
65359;BME280;52491;45.900;6.346;2023-09-18T09:32:53;93697.91;;;28.24;39.28
65359;BME280;52491;45.900;6.346;2023-09-18T09:35:42;93701.06;;;28.26;39.01
65359;BME280;52491;45.900;6.346;2023-09-18T09:38:10;93713.19;;;28.23;39.38
65359;BME280;52491;45.900;6.346;2023-09-18T09:40:40;93716.34;;;28.25;39.27
65359;BME280;52491;45.900;6.346;2023-09-18T09:43:11;93711.78;;;28.26;39.48
65359;BME280;52491;45.900;6.346;2023-09-18T09:45:40;93704.84;;;28.25;39.12
65359;BME280;52491;45.900;6.346;2023-09-18T09:48:09;93686.38;;;28.23;39.38
65359;BME280;52491;45.900;6.346;2023-09-18T09:50:46;93693.34;;;28.24;39.16
65359;BME280;52491;45.900;6.346;2023-09-18T09:53:14;93685.56;;;28.23;39.37
65359;BME280;52491;45.900;6.346;2023-09-18T09:55:40;93698.69;;;28.24;39.38
65359;BME280;52491;45.900;6.346;2023-09-18T09:58:09;93704.06;;;28.24;39.17
65359;BME280;52491;45.900;6.346;2023-09-18T10:03:13;93712.88;;;28.25;39.25
65359;BME280;52491;45.900;6.346;2023-09-18T10:05:42;93697.59;;;28.25;39.28
65359;BME280;52491;45.900;6.346;2023-09-18T10:08:13;93717.97;;;28.26;39.00
65359;BME280;52491;45.900;6.346;2023-09-18T10:10:46;93740.50;;;28.25;39.22
65359;BME280;52491;45.900;6.346;2023-09-18T10:13:27;93810.97;;;28.26;39.32
65359;BME280;52491;45.900;6.346;2023-09-18T10:15:56;93813.19;;;28.24;39.10
65359;BME280;52491;45.900;6.346;2023-09-18T10:21:16;93782.59;;;28.25;39.17
65359;BME280;52491;45.900;6.346;2023-09-18T10:26:20;93756.09;;;28.23;39.43
65359;BME280;52491;45.900;6.346;2023-09-18T10:28:49;93767.09;;;28.22;39.38
65359;BME280;52491;45.900;6.346;2023-09-18T10:31:19;93808.09;;;28.22;39.12
65359;BME280;52491;45.900;6.346;2023-09-18T10:33:48;93827.16;;;28.21;39.30
65359;BME280;52491;45.900;6.346;2023-09-18T10:36:16;93805.19;;;28.19;39.36
65359;BME280;52491;45.900;6.346;2023-09-18T10:38:44;93774.13;;;28.18;39.50
65359;BME280;52491;45.900;6.346;2023-09-18T10:41:15;93803.09;;;28.16;39.42
65359;BME280;52491;45.900;6.346;2023-09-18T10:43:46;93806.56;;;28.16;39.30
65359;BME280;52491;45.900;6.346;2023-09-18T10:46:15;93768.03;;;28.12;39.52
65359;BME280;52491;45.900;6.346;2023-09-18T10:48:42;93788.06;;;28.15;39.63
65359;BME280;52491;45.900;6.346;2023-09-18T10:51:10;93812.19;;;28.15;39.40
65359;BME280;52491;45.900;6.346;2023-09-18T10:53:36;93815.69;;;28.15;39.53
65359;BME280;52491;45.900;6.346;2023-09-18T10:56:02;93768.75;;;28.18;39.51
65359;BME280;52491;45.900;6.346;2023-09-18T10:58:30;93726.94;;;28.17;39.24
65359;BME280;52491;45.900;6.346;2023-09-18T11:00:56;93750.00;;;28.18;39.39
65359;BME280;52491;45.900;6.346;2023-09-18T11:03:33;93758.84;;;28.18;39.42
65359;BME280;52491;45.900;6.346;2023-09-18T11:06:06;93753.75;;;28.17;39.37
65359;BME280;52491;45.900;6.346;2023-09-18T11:08:34;93738.47;;;28.17;39.50
65359;BME280;52491;45.900;6.346;2023-09-18T11:11:08;93692.09;;;28.17;39.80
65359;BME280;52491;45.900;6.346;2023-09-18T11:13:53;93712.75;;;28.16;39.54
65359;BME280;52491;45.900;6.346;2023-09-18T11:21:31;93765.34;;;28.12;39.36
65359;BME280;52491;45.900;6.346;2023-09-18T11:26:34;93760.00;;;28.12;39.37
65359;BME280;52491;45.900;6.346;2023-09-18T11:29:03;93737.72;;;28.11;39.65
65359;BME280;52491;45.900;6.346;2023-09-18T11:34:22;93776.34;;;28.10;39.58
65359;BME280;52491;45.900;6.346;2023-09-18T11:36:49;93813.59;;;28.12;39.41
65359;BME280;52491;45.900;6.346;2023-09-18T11:39:39;93824.81;;;28.14;39.47
65359;BME280;52491;45.900;6.346;2023-09-18T11:42:10;93842.78;;;28.14;39.36
65359;BME280;52491;45.900;6.346;2023-09-18T11:44:37;93831.25;;;28.13;39.53
65359;BME280;52491;45.900;6.346;2023-09-18T11:47:10;93796.16;;;27.91;40.21
65359;BME280;52491;45.900;6.346;2023-09-18T11:49:55;93792.22;;;28.07;39.57
65359;BME280;52491;45.900;6.346;2023-09-18T11:52:27;93806.25;;;27.99;39.60
65359;BME280;52491;45.900;6.346;2023-09-18T11:54:57;93806.66;;;27.87;39.97
65359;BME280;52491;45.900;6.346;2023-09-18T11:57:23;93802.94;;;28.07;39.78
65359;BME280;52491;45.900;6.346;2023-09-18T11:59:50;93784.41;;;28.10;39.52
65359;BME280;52491;45.900;6.346;2023-09-18T12:02:30;93781.44;;;28.12;39.55
65359;BME280;52491;45.900;6.346;2023-09-18T12:05:17;93792.94;;;28.13;39.59
65359;BME280;52491;45.900;6.346;2023-09-18T12:07:45;93791.34;;;28.11;39.53
65359;BME280;52491;45.900;6.346;2023-09-18T12:10:15;93801.25;;;28.11;39.58
65359;BME280;52491;45.900;6.346;2023-09-18T12:12:43;93812.78;;;28.11;39.48
65359;BME280;52491;45.900;6.346;2023-09-18T12:15:12;93820.28;;;27.91;39.88
65359;BME280;52491;45.900;6.346;2023-09-18T12:17:38;93819.25;;;27.86;39.96
65359;BME280;52491;45.900;6.346;2023-09-18T12:20:04;93825.69;;;27.85;40.42
65359;BME280;52491;45.900;6.346;2023-09-18T12:22:31;93832.41;;;27.83;40.21
65359;BME280;52491;45.900;6.346;2023-09-18T12:25:10;93832.16;;;27.84;40.08
65359;BME280;52491;45.900;6.346;2023-09-18T12:27:36;93851.44;;;28.05;39.92
65359;BME280;52491;45.900;6.346;2023-09-18T12:30:04;93837.47;;;28.08;39.50
65359;BME280;52491;45.900;6.346;2023-09-18T12:32:30;93826.47;;;28.10;39.58
65359;BME280;52491;45.900;6.346;2023-09-18T12:34:58;93812.00;;;28.11;39.71
65359;BME280;52491;45.900;6.346;2023-09-18T12:37:24;93818.97;;;28.12;39.38
65359;BME280;52491;45.900;6.346;2023-09-18T12:39:50;93825.38;;;28.11;39.67
65359;BME280;52491;45.900;6.346;2023-09-18T12:42:18;93803.94;;;28.11;39.49
65359;BME280;52491;45.900;6.346;2023-09-18T12:44:46;93803.38;;;28.14;39.45
65359;BME280;52491;45.900;6.346;2023-09-18T12:47:13;93809.03;;;28.13;39.42
65359;BME280;52491;45.900;6.346;2023-09-18T12:49:38;93810.63;;;28.14;39.46
65359;BME280;52491;45.900;6.346;2023-09-18T12:52:05;93803.94;;;28.11;39.55
65359;BME280;52491;45.900;6.346;2023-09-18T12:57:05;93806.63;;;28.11;39.43
65359;BME280;52491;45.900;6.346;2023-09-18T12:59:36;93807.41;;;28.11;39.36
65359;BME280;52491;45.900;6.346;2023-09-18T13:02:04;93805.56;;;28.12;39.54
65359;BME280;52491;45.900;6.346;2023-09-18T13:04:37;93808.25;;;28.12;39.52
65359;BME280;52491;45.900;6.346;2023-09-18T13:07:05;93800.47;;;28.10;39.21
65359;BME280;52491;45.900;6.346;2023-09-18T13:09:31;93777.16;;;28.11;39.54
65359;BME280;52491;45.900;6.346;2023-09-18T13:11:57;93776.06;;;28.12;39.47
65359;BME280;52491;45.900;6.346;2023-09-18T13:14:24;93780.63;;;28.11;39.46
65359;BME280;52491;45.900;6.346;2023-09-18T13:16:49;93782.22;;;28.13;39.27
65359;BME280;52491;45.900;6.346;2023-09-18T13:19:16;93788.38;;;28.13;39.44
65359;BME280;52491;45.900;6.346;2023-09-18T13:21:49;93792.16;;;28.12;39.37
65359;BME280;52491;45.900;6.346;2023-09-18T13:24:28;93801.78;;;28.13;39.32
65359;BME280;52491;45.900;6.346;2023-09-18T13:26:55;93793.75;;;28.13;39.38
65359;BME280;52491;45.900;6.346;2023-09-18T13:29:23;93777.94;;;28.11;39.38
65359;BME280;52491;45.900;6.346;2023-09-18T13:31:48;93765.34;;;28.12;39.44